Terminal Aerodrome Forecast
Issued by NWS

Current Version | Previous Version | Graphics & Text | Print | Product List | Glossary On
Versions: 1 2 3 4 5 6 7 8 9 10 11 12 13 14 15 16 17 18 19 20 21 22 23 24 25 26 27 28 29 30 31 32 33 34 35 36 37 38 39 40 41 42 43 44 45 46 47 48
219
FTUS41 KRNK 241120
TAFLWB
TAF
KLWB 241120Z 2412/2512 00000KT P6SM SCT007 OVC010
     FM241600 11004KT 6SM -SHRA BR BKN007 OVC020
     FM242000 13006KT 4SM SHRA OVC010
     FM250100 12004KT 5SM -SHRA OVC005
     FM250700 30003KT 2SM BR OVC002=

USA.gov is the U.S. government's official web portal to all federal, state and local government web resources and services.